Time;durP1;ratioP1;P1;durP2;ratioP2;P2;SDS_P1;SDS_P2;PMS_P1;PMS_P2;Temp;Humidity;BMP_temperature;BMP_pressure;BME280_temperature;BME280_humidity;BME280_pressure;Samples;Min_cycle;Max_cycle;Signal;HPM_P1;HPM_P2
2023/09/26 00:01:48;;;;;;;6.43;5.20;;;13.10;99.90;;;;;;4945219;29;20532;-85
2023/09/26 00:04:14;;;;;;;4.63;4.22;;;13.30;99.90;;;;;;4941190;29;20727;-87
2023/09/26 00:06:39;;;;;;;4.90;4.40;;;13.30;99.90;;;;;;4941311;29;20273;-87
2023/09/26 00:09:05;;;;;;;5.17;4.67;;;13.20;99.90;;;;;;4942391;29;20279;-85
2023/09/26 00:11:33;;;;;;;5.20;4.80;;;13.60;99.90;;;;;;4944239;28;20197;-87
2023/09/26 00:13:59;;;;;;;4.57;4.18;;;13.60;99.90;;;;;;4945883;29;20240;-87
2023/09/26 00:16:24;;;;;;;7.53;5.40;;;12.90;99.90;;;;;;4944504;29;20237;-87
2023/09/26 00:18:50;;;;;;;4.90;4.47;;;13.40;99.90;;;;;;4947225;29;20205;-87
2023/09/26 00:21:15;;;;;;;5.23;4.73;;;13.50;99.90;;;;;;4941317;29;20298;-87
2023/09/26 00:23:41;;;;;;;5.10;4.63;;;12.90;99.90;;;;;;4941407;29;20694;-88
2023/09/26 00:26:07;;;;;;;5.30;4.90;;;13.10;99.90;;;;;;4943673;29;20276;-85
2023/09/26 00:28:33;;;;;;;5.85;5.35;;;13.10;99.90;;;;;;4965287;28;20205;-87
2023/09/26 00:31:04;;;;;;;4.90;4.50;;;13.40;99.90;;;;;;4965830;28;20170;-87
2023/09/26 00:33:31;;;;;;;4.90;4.50;;;13.00;99.90;;;;;;4941829;29;20221;-87
2023/09/26 00:35:58;;;;;;;5.18;4.78;;;12.90;99.90;;;;;;4940893;29;20566;-85
2023/09/26 00:38:23;;;;;;;7.95;4.97;;;13.10;99.90;;;;;;4941865;29;20196;-87
2023/09/26 00:40:49;;;;;;;5.63;5.13;;;13.30;99.90;;;;;;4943033;29;20180;-86
2023/09/26 00:43:21;;;;;;;4.70;4.30;;;12.90;99.90;;;;;;4943547;29;20213;-85
2023/09/26 00:45:53;;;;;;;4.90;4.50;;;13.20;99.90;;;;;;4941176;29;20185;-85
2023/09/26 00:48:18;;;;;;;4.93;4.43;;;12.90;99.90;;;;;;4940816;28;20189;-87
2023/09/26 00:50:45;;;;;;;4.87;4.57;;;13.00;99.90;;;;;;4940813;29;20185;-86
2023/09/26 00:53:10;;;;;;;4.80;4.38;;;13.20;99.90;;;;;;4957588;29;20269;-88
2023/09/26 00:55:37;;;;;;;5.60;4.30;;;13.00;99.90;;;;;;4964022;28;20193;-88
2023/09/26 00:58:03;;;;;;;4.70;4.30;;;13.30;99.90;;;;;;4964808;29;20189;-86
2023/09/26 01:00:28;;;;;;;5.07;4.67;;;12.90;99.90;;;;;;4941959;29;20249;-86
2023/09/26 01:02:54;;;;;;;5.00;4.60;;;12.90;99.90;;;;;;4939913;29;20204;-86
2023/09/26 01:05:20;;;;;;;5.30;4.80;;;12.80;99.90;;;;;;4941537;29;20189;-86
2023/09/26 01:07:46;;;;;;;5.17;4.77;;;12.80;99.90;;;;;;4937692;28;20453;-87
2023/09/26 01:10:12;;;;;;;5.82;5.32;;;12.70;99.90;;;;;;4940556;29;20185;-87
2023/09/26 01:12:38;;;;;;;5.40;4.90;;;13.20;99.90;;;;;;4937209;29;20208;-88
2023/09/26 01:15:05;;;;;;;4.43;4.13;;;13.00;99.90;;;;;;4943635;29;20205;-87
2023/09/26 01:17:32;;;;;;;5.30;4.90;;;12.60;99.90;;;;;;4942298;29;20232;-87
2023/09/26 01:19:59;;;;;;;4.85;4.40;;;12.60;99.90;;;;;;4935050;29;20186;-87
2023/09/26 01:22:27;;;;;;;4.47;4.07;;;12.60;99.90;;;;;;4945895;29;20248;-87
2023/09/26 01:24:53;;;;;;;5.70;5.00;;;12.70;99.90;;;;;;4944963;29;20185;-87
2023/09/26 01:27:18;;;;;;;5.63;4.50;;;13.00;99.90;;;;;;4945957;28;20275;-87
2023/09/26 01:29:47;;;;;;;5.20;4.80;;;12.80;99.90;;;;;;4941553;29;20189;-87
2023/09/26 01:32:13;;;;;;;5.65;5.15;;;12.60;99.90;;;;;;4943760;29;20555;-87
2023/09/26 01:34:38;;;;;;;7.13;5.10;;;12.50;99.90;;;;;;4947047;29;20733;-87
2023/09/26 01:37:04;;;;;;;4.83;4.43;;;12.30;99.90;;;;;;4950586;29;20200;-87
2023/09/26 01:39:30;;;;;;;4.87;4.47;;;12.30;99.90;;;;;;4945671;29;20300;-87
2023/09/26 01:41:56;;;;;;;5.20;4.80;;;12.40;99.90;;;;;;4945857;29;20212;-87
2023/09/26 01:44:22;;;;;;;5.47;4.97;;;12.90;99.90;;;;;;4941741;29;20459;-86
2023/09/26 01:46:47;;;;;;;6.95;5.00;;;11.80;99.90;;;;;;4943838;28;20195;-87
2023/09/26 01:49:13;;;;;;;5.20;4.80;;;12.40;99.90;;;;;;4943045;29;20670;-86
2023/09/26 01:51:39;;;;;;;5.10;4.60;;;12.50;99.90;;;;;;4962178;29;20272;-87
2023/09/26 01:54:04;;;;;;;5.30;4.80;;;12.60;99.90;;;;;;4959965;29;20204;-86
2023/09/26 01:56:32;;;;;;;5.60;5.00;;;12.40;99.90;;;;;;4958992;29;20196;-87
2023/09/26 01:58:58;;;;;;;5.25;4.85;;;12.20;99.90;;;;;;4951861;29;20968;-87
2023/09/26 02:01:24;;;;;;;5.33;4.83;;;12.30;99.90;;;;;;4946950;29;20240;-87
2023/09/26 02:03:49;;;;;;;5.40;4.93;;;12.30;99.90;;;;;;4945215;28;20573;-87
2023/09/26 02:06:15;;;;;;;5.23;4.73;;;12.70;99.90;;;;;;4953528;29;20466;-87
2023/09/26 02:08:40;;;;;;;5.03;4.73;;;12.00;99.90;;;;;;4945806;29;20193;-87
2023/09/26 02:11:06;;;;;;;5.07;4.67;;;12.60;99.90;;;;;;4944074;29;20654;-87
2023/09/26 02:13:32;;;;;;;5.00;4.60;;;12.30;99.90;;;;;;4944559;29;20291;-87
2023/09/26 02:15:57;;;;;;;5.93;5.43;;;12.10;99.90;;;;;;4946404;29;20197;-87
2023/09/26 02:18:23;;;;;;;5.83;5.33;;;12.40;99.90;;;;;;4952216;29;20256;-87
2023/09/26 02:20:50;;;;;;;5.18;4.78;;;12.10;99.90;;;;;;4945439;29;20191;-87
2023/09/26 02:23:15;;;;;;;6.03;5.53;;;12.50;99.90;;;;;;4944915;29;20209;-87
2023/09/26 02:25:49;;;;;;;6.10;5.10;;;12.10;99.90;;;;;;4968327;28;20188;-87
2023/09/26 02:28:14;;;;;;;5.57;4.43;;;12.30;99.90;;;;;;4949111;28;20347;-87
2023/09/26 02:30:41;;;;;;;5.73;4.90;;;12.20;99.90;;;;;;4944688;29;20669;-87
2023/09/26 02:33:07;;;;;;;5.75;5.25;;;12.10;99.90;;;;;;4944776;29;20203;-87
2023/09/26 02:35:32;;;;;;;5.77;5.37;;;12.10;99.90;;;;;;4947481;29;20213;-87
2023/09/26 02:37:58;;;;;;;5.70;5.20;;;12.10;99.90;;;;;;4946026;29;20218;-87
2023/09/26 02:40:23;;;;;;;6.03;5.53;;;12.10;99.90;;;;;;4945068;29;20565;-87
2023/09/26 02:42:50;;;;;;;4.90;4.50;;;12.10;99.90;;;;;;4944270;28;20780;-87
2023/09/26 02:45:15;;;;;;;6.13;5.60;;;12.10;99.90;;;;;;4942580;29;20199;-87
2023/09/26 02:47:42;;;;;;;5.83;5.33;;;12.40;99.90;;;;;;4945674;29;20806;-87
2023/09/26 02:50:08;;;;;;;5.78;5.28;;;12.00;99.90;;;;;;4960022;28;20252;-87
2023/09/26 02:52:34;;;;;;;5.85;5.35;;;12.00;99.90;;;;;;4957968;29;20719;-87
2023/09/26 02:55:01;;;;;;;7.07;6.15;;;12.50;99.90;;;;;;4956282;29;20205;-87
2023/09/26 02:57:26;;;;;;;5.93;5.40;;;12.40;99.90;;;;;;4950637;29;20192;-87
2023/09/26 02:59:52;;;;;;;5.70;5.20;;;12.00;99.90;;;;;;4946423;29;20177;-87
2023/09/26 03:02:17;;;;;;;5.30;4.90;;;12.10;99.90;;;;;;4946661;28;20319;-87
2023/09/26 03:04:48;;;;;;;4.90;4.50;;;11.80;99.90;;;;;;4947430;29;20270;-87
2023/09/26 03:07:14;;;;;;;5.72;5.25;;;12.40;99.90;;;;;;4943105;29;20189;-87
2023/09/26 03:09:39;;;;;;;5.30;4.72;;;12.00;99.90;;;;;;4944201;29;20214;-86
2023/09/26 03:12:06;;;;;;;5.07;4.57;;;12.30;99.90;;;;;;4945072;29;20205;-86
2023/09/26 03:14:32;;;;;;;6.25;5.10;;;12.00;99.90;;;;;;4960752;28;20207;-86
2023/09/26 03:16:57;;;;;;;4.93;4.53;;;12.00;99.90;;;;;;4961099;29;20247;-86
2023/09/26 03:19:23;;;;;;;5.37;4.87;;;12.30;99.90;;;;;;4958806;29;20594;-86
2023/09/26 03:21:50;;;;;;;6.33;5.73;;;11.90;99.90;;;;;;4943737;28;20186;-87
2023/09/26 03:24:16;;;;;;;5.15;4.75;;;12.20;99.90;;;;;;4942125;29;20189;-87
2023/09/26 03:26:42;;;;;;;4.75;4.32;;;11.80;99.90;;;;;;4941558;29;20293;-86
2023/09/26 03:29:07;;;;;;;4.70;4.30;;;11.90;99.90;;;;;;4943033;29;20271;-86
2023/09/26 03:31:34;;;;;;;4.70;4.30;;;11.80;99.90;;;;;;4942112;29;20269;-87
2023/09/26 03:33:59;;;;;;;5.53;5.03;;;11.90;99.90;;;;;;4944960;29;20220;-86
2023/09/26 03:36:25;;;;;;;5.20;4.70;;;12.20;99.90;;;;;;4943775;29;20192;-86
2023/09/26 03:38:51;;;;;;;6.03;5.40;;;11.90;99.90;;;;;;4942758;28;20292;-86
2023/09/26 03:41:16;;;;;;;5.93;5.40;;;11.60;99.90;;;;;;4942117;29;20188;-87
2023/09/26 03:43:42;;;;;;;5.57;5.10;;;11.60;99.90;;;;;;4939740;29;20219;-87
2023/09/26 03:46:08;;;;;;;5.67;5.17;;;12.00;99.90;;;;;;4940612;29;20252;-87
2023/09/26 03:48:35;;;;;;;6.78;5.03;;;11.60;99.90;;;;;;4942692;29;20301;-86
2023/09/26 03:51:11;;;;;;;5.72;5.22;;;11.70;99.90;;;;;;4940858;29;20222;-86
2023/09/26 03:53:38;;;;;;;8.85;5.50;;;11.60;99.90;;;;;;4937710;29;20209;-86
2023/09/26 03:56:04;;;;;;;6.03;5.47;;;12.00;99.90;;;;;;4940993;29;20658;-86
2023/09/26 03:58:31;;;;;;;6.18;5.57;;;11.60;99.90;;;;;;4942581;28;20185;-86
2023/09/26 04:01:12;;;;;;;5.93;5.32;;;11.50;99.90;;;;;;4941235;29;20189;-87
2023/09/26 04:03:39;;;;;;;6.57;5.88;;;11.50;99.90;;;;;;4932502;28;20563;-86
2023/09/26 04:06:05;;;;;;;5.28;4.78;;;12.00;99.90;;;;;;4940693;29;20505;-86
2023/09/26 04:08:31;;;;;;;5.83;5.30;;;11.80;99.90;;;;;;4941948;29;20257;-86
2023/09/26 04:10:57;;;;;;;5.55;5.15;;;12.00;99.90;;;;;;4962463;28;20440;-86
2023/09/26 04:13:22;;;;;;;5.90;5.33;;;11.80;99.90;;;;;;4944604;29;20218;-86
2023/09/26 04:15:48;;;;;;;6.30;5.70;;;11.50;99.90;;;;;;4942419;29;20219;-87
2023/09/26 04:18:13;;;;;;;6.63;6.03;;;11.70;99.90;;;;;;4942617;28;20231;-87
2023/09/26 04:20:39;;;;;;;6.43;5.90;;;11.60;99.90;;;;;;4945272;29;20190;-87
2023/09/26 04:23:05;;;;;;;6.20;5.70;;;11.50;99.90;;;;;;4942906;29;20200;-87
2023/09/26 04:25:33;;;;;;;7.50;6.10;;;11.70;99.90;;;;;;4945932;29;20464;-86
2023/09/26 04:27:58;;;;;;;6.28;5.70;;;11.60;99.90;;;;;;4937921;29;20310;-86
2023/09/26 04:30:24;;;;;;;7.07;6.40;;;11.50;99.90;;;;;;4940097;29;20330;-86
2023/09/26 04:32:50;;;;;;;6.97;6.37;;;11.60;99.90;;;;;;4939687;29;20216;-86
2023/09/26 04:35:15;;;;;;;7.27;6.57;;;11.60;99.90;;;;;;4940386;29;20307;-86
2023/09/26 04:37:41;;;;;;;7.40;6.70;;;11.50;99.90;;;;;;4961239;28;20279;-86
2023/09/26 04:40:10;;;;;;;8.83;7.77;;;11.90;99.90;;;;;;4948425;29;20198;-86
2023/09/26 04:42:41;;;;;;;6.75;6.25;;;11.40;99.90;;;;;;4944792;29;20213;-86
2023/09/26 04:45:08;;;;;;;8.35;7.55;;;11.80;99.90;;;;;;4942510;28;20191;-87
2023/09/26 04:47:35;;;;;;;10.52;8.63;;;11.50;99.90;;;;;;4942893;29;20192;-86
2023/09/26 04:50:01;;;;;;;8.98;8.10;;;11.70;99.90;;;;;;4945213;29;20697;-90
2023/09/26 04:52:26;;;;;;;9.70;8.20;;;11.60;99.90;;;;;;4942884;29;20214;-85
2023/09/26 04:54:52;;;;;;;8.40;7.60;;;11.60;99.90;;;;;;4946344;29;20212;-85
2023/09/26 04:57:17;;;;;;;9.27;8.30;;;11.60;99.90;;;;;;4950115;29;20290;-85
2023/09/26 04:59:44;;;;;;;8.60;7.80;;;11.70;99.90;;;;;;4942465;29;20191;-85
2023/09/26 05:02:10;;;;;;;12.85;9.25;;;11.70;99.90;;;;;;4943810;29;20321;-86
2023/09/26 05:04:35;;;;;;;7.97;7.27;;;11.60;99.90;;;;;;4944492;29;20235;-86
2023/09/26 05:07:01;;;;;;;9.30;7.70;;;12.10;99.90;;;;;;4941017;29;20313;-82
2023/09/26 05:09:26;;;;;;;10.50;9.10;;;11.80;99.90;;;;;;4950298;29;20647;-84
2023/09/26 05:11:52;;;;;;;11.10;10.03;;;11.80;99.90;;;;;;4944053;29;20216;-83
2023/09/26 05:14:17;;;;;;;9.10;8.10;;;11.80;99.90;;;;;;4948448;28;20205;-83
2023/09/26 05:16:43;;;;;;;10.07;9.07;;;12.10;99.90;;;;;;4942627;29;20213;-83
2023/09/26 05:19:08;;;;;;;13.47;10.10;;;12.20;99.90;;;;;;4942540;29;20216;-83
2023/09/26 05:21:34;;;;;;;10.63;9.60;;;11.80;99.90;;;;;;4944684;29;20184;-83
2023/09/26 05:23:59;;;;;;;10.03;9.13;;;12.10;99.90;;;;;;4943015;29;20190;-81
2023/09/26 05:26:25;;;;;;;10.00;9.00;;;12.00;99.90;;;;;;4943913;29;20193;-86
2023/09/26 05:28:50;;;;;;;9.77;8.97;;;12.20;99.90;;;;;;4950141;29;20222;-84
2023/09/26 05:31:17;;;;;;;9.13;8.00;;;11.60;99.90;;;;;;4950890;29;20956;-84
2023/09/26 05:33:43;;;;;;;10.00;8.30;;;12.20;99.90;;;;;;4949891;29;20207;-84
2023/09/26 05:36:09;;;;;;;10.68;9.10;;;11.90;99.90;;;;;;4940549;29;20185;-85
2023/09/26 05:38:35;;;;;;;11.33;10.23;;;12.20;99.90;;;;;;4945755;29;20193;-85
2023/09/26 05:41:00;;;;;;;9.83;8.53;;;11.90;99.90;;;;;;4950098;29;20216;-85
2023/09/26 05:43:27;;;;;;;10.10;8.43;;;12.30;99.90;;;;;;4942860;29;20216;-85
2023/09/26 05:45:52;;;;;;;9.60;8.70;;;11.90;99.90;;;;;;4946935;29;20193;-84
2023/09/26 05:48:19;;;;;;;9.37;8.43;;;12.00;99.90;;;;;;4951202;29;20196;-85
2023/09/26 05:50:44;;;;;;;11.35;9.48;;;12.00;99.90;;;;;;4947297;29;20217;-85
2023/09/26 05:53:11;;;;;;;10.07;9.10;;;12.50;99.90;;;;;;4944827;29;20216;-85
2023/09/26 05:55:37;;;;;;;9.80;8.80;;;12.00;99.90;;;;;;4945989;29;20320;-85
2023/09/26 05:58:03;;;;;;;11.33;10.30;;;11.80;99.90;;;;;;4950595;29;20266;-85
2023/09/26 06:00:28;;;;;;;15.53;10.10;;;12.00;99.90;;;;;;4953452;29;20215;-85
2023/09/26 06:02:54;;;;;;;10.63;9.73;;;11.90;99.90;;;;;;4963067;28;20239;-85
2023/09/26 06:05:21;;;;;;;11.47;10.27;;;12.00;99.90;;;;;;4970611;28;20187;-85
2023/09/26 06:07:47;;;;;;;11.32;10.18;;;12.40;99.90;;;;;;4962203;29;20204;-85
2023/09/26 06:10:12;;;;;;;11.75;10.65;;;12.00;99.90;;;;;;4946913;29;20258;-86
2023/09/26 06:12:38;;;;;;;10.10;8.97;;;12.50;99.90;;;;;;4944178;29;20212;-85
2023/09/26 06:15:06;;;;;;;14.10;10.07;;;12.10;99.90;;;;;;4943516;29;20209;-86
2023/09/26 06:17:32;;;;;;;9.32;8.05;;;12.20;99.90;;;;;;4953650;28;20192;-86
2023/09/26 06:19:57;;;;;;;8.43;7.63;;;12.60;99.90;;;;;;4947856;29;20193;-86
2023/09/26 06:22:23;;;;;;;9.63;8.33;;;12.60;99.90;;;;;;4954661;29;20208;-86
2023/09/26 06:24:48;;;;;;;9.07;8.13;;;12.00;99.90;;;;;;4952238;29;20189;-85
2023/09/26 06:27:14;;;;;;;8.43;7.63;;;12.20;99.90;;;;;;4953491;29;20201;-87
2023/09/26 06:29:40;;;;;;;8.30;7.50;;;12.50;99.90;;;;;;4948479;29;20633;-84
2023/09/26 06:32:05;;;;;;;7.77;7.07;;;12.70;99.90;;;;;;4949679;29;20212;-85
2023/09/26 06:34:32;;;;;;;9.30;8.30;;;12.50;99.90;;;;;;4960238;29;20475;-85
2023/09/26 06:36:57;;;;;;;7.82;6.97;;;13.00;99.90;;;;;;4966873;29;20736;-85
2023/09/26 06:39:23;;;;;;;8.80;8.00;;;12.80;99.90;;;;;;4963266;29;20276;-85
2023/09/26 06:41:49;;;;;;;7.83;7.13;;;12.70;99.90;;;;;;4962873;29;20456;-85
2023/09/26 06:44:14;;;;;;;7.40;6.80;;;13.00;99.90;;;;;;4954191;29;20197;-86
2023/09/26 06:46:40;;;;;;;11.33;7.53;;;13.50;99.90;;;;;;4967890;28;20185;-86
2023/09/26 06:49:05;;;;;;;8.57;6.70;;;13.20;99.90;;;;;;4955352;29;20284;-86
2023/09/26 06:51:33;;;;;;;7.13;6.50;;;13.30;99.90;;;;;;4948146;29;20190;-86
2023/09/26 06:53:59;;;;;;;6.63;5.97;;;13.40;99.90;;;;;;4949210;29;20265;-86
2023/09/26 06:56:25;;;;;;;6.90;6.30;;;14.10;99.90;;;;;;4956039;29;20194;-86
2023/09/26 06:58:50;;;;;;;7.47;6.77;;;14.20;99.90;;;;;;4950037;29;20197;-86
2023/09/26 07:01:18;;;;;;;9.20;8.30;;;14.00;99.90;;;;;;4948942;29;20193;-85
2023/09/26 07:03:43;;;;;;;8.95;8.15;;;14.10;99.90;;;;;;4946370;29;20209;-86
2023/09/26 07:06:10;;;;;;;9.57;8.57;;;14.50;99.90;;;;;;4948568;29;20192;-86
2023/09/26 07:08:37;;;;;;;14.32;8.88;;;14.80;99.90;;;;;;4947456;29;20472;-85
2023/09/26 07:11:03;;;;;;;11.63;8.48;;;15.60;99.90;;;;;;4947633;28;20185;-86
2023/09/26 07:13:29;;;;;;;13.38;7.10;;;15.90;99.90;;;;;;4945724;29;20239;-86
2023/09/26 07:15:59;;;;;;;7.87;7.17;;;17.60;99.90;;;;;;4951369;29;20208;-86
2023/09/26 07:18:25;;;;;;;10.73;8.05;;;19.00;99.90;;;;;;4947600;29;20272;-86
2023/09/26 07:20:51;;;;;;;9.50;8.57;;;19.30;99.90;;;;;;4943656;29;20249;-86
2023/09/26 07:23:17;;;;;;;8.67;7.77;;;19.80;98.90;;;;;;4946959;29;20765;-86
2023/09/26 07:25:42;;;;;;;8.07;7.43;;;19.40;98.90;;;;;;4951677;29;20965;-86
2023/09/26 07:28:08;;;;;;;9.80;8.47;;;18.90;99.10;;;;;;4951305;29;20449;-86
2023/09/26 07:30:34;;;;;;;8.97;7.20;;;19.20;99.90;;;;;;4947762;28;20201;-86
2023/09/26 07:33:00;;;;;;;7.90;7.10;;;19.20;99.70;;;;;;4945306;29;20581;-86
2023/09/26 07:35:27;;;;;;;8.77;7.97;;;19.20;99.60;;;;;;4949534;29;20236;-86
2023/09/26 07:37:53;;;;;;;8.38;7.68;;;19.00;99.40;;;;;;4948088;29;20532;-85
2023/09/26 07:40:19;;;;;;;8.40;7.60;;;18.70;99.90;;;;;;4948359;29;20685;-86
2023/09/26 07:42:44;;;;;;;8.63;7.83;;;19.00;99.90;;;;;;4948303;29;20468;-86
2023/09/26 07:45:10;;;;;;;9.77;8.07;;;19.90;98.10;;;;;;4942269;29;20272;-86
2023/09/26 07:47:36;;;;;;;7.27;6.13;;;22.00;96.00;;;;;;4942950;29;20553;-86
2023/09/26 07:50:02;;;;;;;10.37;6.00;;;24.60;91.00;;;;;;4947103;29;20453;-86
2023/09/26 07:52:28;;;;;;;7.37;6.67;;;26.40;82.50;;;;;;4944249;29;20680;-86
2023/09/26 07:54:54;;;;;;;7.50;6.80;;;27.30;77.10;;;;;;4945438;29;20213;-86
2023/09/26 07:57:20;;;;;;;8.83;8.03;;;27.30;76.30;;;;;;4949309;29;20463;-86
2023/09/26 07:59:46;;;;;;;9.03;7.17;;;26.40;75.80;;;;;;4947389;29;20195;-84
2023/09/26 08:02:12;;;;;;;9.13;8.20;;;26.00;78.20;;;;;;4943253;29;20460;-86
2023/09/26 08:04:37;;;;;;;6.97;6.37;;;24.50;80.50;;;;;;4942484;29;20538;-85
2023/09/26 08:07:04;;;;;;;8.03;7.23;;;24.60;82.80;;;;;;4943440;29;20199;-85
2023/09/26 08:09:31;;;;;;;16.07;14.70;;;23.40;83.50;;;;;;4936984;29;20205;-85
2023/09/26 08:11:56;;;;;;;10.93;9.93;;;23.10;85.50;;;;;;4941516;29;20480;-85
2023/09/26 08:14:22;;;;;;;7.50;6.53;;;22.70;86.60;;;;;;4950905;29;20475;-85
2023/09/26 08:16:47;;;;;;;7.80;6.97;;;22.30;88.00;;;;;;4947859;29;20188;-85
2023/09/26 08:19:13;;;;;;;8.47;7.60;;;21.70;90.30;;;;;;4950925;29;20191;-86
2023/09/26 08:21:39;;;;;;;7.10;6.40;;;20.90;91.60;;;;;;4948952;29;20192;-85
2023/09/26 08:24:06;;;;;;;7.97;7.15;;;20.50;92.70;;;;;;4944637;29;20186;-85
2023/09/26 08:26:31;;;;;;;7.10;6.50;;;20.10;93.90;;;;;;4942407;29;20201;-85
2023/09/26 08:28:57;;;;;;;7.70;7.00;;;20.20;95.10;;;;;;4944276;29;20198;-85
2023/09/26 08:31:22;;;;;;;8.00;6.83;;;20.00;95.70;;;;;;4945374;29;20185;-85
2023/09/26 08:33:49;;;;;;;9.40;7.13;;;19.90;96.40;;;;;;4945012;29;20217;-85
2023/09/26 08:36:21;;;;;;;7.10;6.47;;;19.60;96.70;;;;;;4955582;23;20943;-90
2023/09/26 08:38:49;;;;;;;7.25;6.55;;;19.70;97.40;;;;;;4949907;29;20277;-90
2023/09/26 08:41:19;;;;;;;6.30;5.70;;;18.90;97.20;;;;;;4929988;29;20204;-91
2023/09/26 08:43:45;;;;;;;7.00;6.40;;;19.50;97.90;;;;;;4913143;29;20217;-91
2023/09/26 08:46:11;;;;;;;8.60;7.23;;;19.50;98.30;;;;;;4912997;29;20178;-91
2023/09/26 08:48:38;;;;;;;9.00;8.10;;;19.30;98.40;;;;;;4914059;29;20470;-91
2023/09/26 08:51:03;;;;;;;11.25;8.63;;;19.20;98.60;;;;;;4907395;29;20980;-91
2023/09/26 08:53:29;;;;;;;7.37;6.57;;;19.20;99.00;;;;;;4924600;29;20484;-92
2023/09/26 08:55:55;;;;;;;7.70;7.00;;;19.40;99.30;;;;;;4920846;29;20235;-92
2023/09/26 08:58:21;;;;;;;7.30;6.57;;;19.20;98.70;;;;;;4911363;29;20481;-91
2023/09/26 09:00:47;;;;;;;6.78;6.28;;;19.70;98.90;;;;;;4894223;29;20191;-91
2023/09/26 09:03:13;;;;;;;6.40;5.90;;;20.60;98.50;;;;;;4907379;29;20250;-91
2023/09/26 09:05:40;;;;;;;9.50;6.50;;;20.40;96.70;;;;;;4908943;29;20996;-91
2023/09/26 09:08:17;;;;;;;7.13;6.03;;;20.50;96.00;;;;;;4912648;29;20199;-91
2023/09/26 09:10:55;;;;;;;7.57;6.35;;;20.40;96.50;;;;;;4910827;29;20241;-90
2023/09/26 09:13:32;;;;;;;8.65;5.40;;;20.30;96.80;;;;;;4903504;29;20215;-90
2023/09/26 09:16:12;;;;;;;6.20;5.60;;;20.10;96.50;;;;;;4909755;29;20658;-90
2023/09/26 09:18:41;;;;;;;6.40;5.90;;;20.20;96.80;;;;;;4910677;29;20524;-90
2023/09/26 09:21:21;;;;;;;7.38;6.68;;;20.20;97.30;;;;;;4919194;29;20285;-92
2023/09/26 09:23:47;;;;;;;6.65;6.05;;;20.20;97.70;;;;;;4910064;29;20304;-90
2023/09/26 09:26:12;;;;;;;10.18;8.10;;;20.70;97.80;;;;;;4912821;29;20277;-91
2023/09/26 09:28:38;;;;;;;12.70;10.40;;;20.30;97.30;;;;;;4911986;29;20670;-91
2023/09/26 09:31:03;;;;;;;10.43;9.43;;;20.30;97.30;;;;;;4911139;29;20209;-90
2023/09/26 09:33:31;;;;;;;7.13;6.43;;;20.60;97.70;;;;;;4911084;29;20202;-92
2023/09/26 09:35:57;;;;;;;5.70;5.20;;;20.90;97.00;;;;;;4911173;29;20561;-90
2023/09/26 09:38:22;;;;;;;7.63;5.40;;;21.50;96.40;;;;;;4912550;29;20442;-90
2023/09/26 09:40:48;;;;;;;6.67;4.93;;;22.80;94.70;;;;;;4910420;29;20430;-90
2023/09/26 09:43:13;;;;;;;6.60;5.77;;;24.60;91.10;;;;;;4910147;29;20206;-91
2023/09/26 09:45:43;;;;;;;6.03;5.10;;;27.30;84.60;;;;;;4909630;29;20208;-91
2023/09/26 09:48:09;;;;;;;7.60;5.70;;;29.60;73.50;;;;;;4909338;29;20455;-91
2023/09/26 09:50:39;;;;;;;5.60;5.00;;;30.00;68.60;;;;;;4909673;29;20667;-92
2023/09/26 09:53:05;;;;;;;5.40;5.00;;;30.90;64.90;;;;;;4909940;29;20466;-91
2023/09/26 09:55:42;;;;;;;6.27;5.30;;;32.80;60.20;;;;;;4909109;29;21002;-91
2023/09/26 09:58:09;;;;;;;5.90;5.30;;;33.30;56.30;;;;;;4916392;29;20460;-91
2023/09/26 10:00:40;;;;;;;6.27;5.50;;;33.60;53.90;;;;;;4914369;29;20459;-91
2023/09/26 10:03:06;;;;;;;8.40;6.13;;;33.00;55.80;;;;;;4917064;29;20549;-91
2023/09/26 10:05:34;;;;;;;5.60;4.90;;;34.00;53.30;;;;;;4916737;29;20450;-91
2023/09/26 10:08:02;;;;;;;5.40;4.87;;;34.80;52.00;;;;;;4915115;29;20767;-92
2023/09/26 10:10:28;;;;;;;4.90;4.50;;;34.20;51.50;;;;;;4912089;29;20521;-90
2023/09/26 10:12:55;;;;;;;4.60;4.17;;;34.50;51.40;;;;;;4910617;29;20466;-91
2023/09/26 10:15:22;;;;;;;6.00;5.50;;;34.10;51.10;;;;;;4911354;29;20214;-91
2023/09/26 10:17:48;;;;;;;5.57;5.00;;;33.20;51.80;;;;;;4915933;29;20453;-90
2023/09/26 10:20:15;;;;;;;4.90;4.50;;;31.00;55.40;;;;;;4893883;29;20512;-90
2023/09/26 10:22:43;;;;;;;6.20;5.20;;;29.80;58.00;;;;;;4910589;29;20473;-90
2023/09/26 10:25:15;;;;;;;5.97;5.37;;;28.40;60.90;;;;;;4913229;29;20460;-91
2023/09/26 10:27:43;;;;;;;5.47;4.97;;;27.70;63.40;;;;;;4916073;29;20530;-91
2023/09/26 10:30:12;;;;;;;10.03;5.60;;;27.00;67.60;;;;;;4925738;29;20445;-91
2023/09/26 10:32:45;;;;;;;5.37;4.90;;;26.30;69.20;;;;;;4912640;29;20476;-90
2023/09/26 10:35:13;;;;;;;5.60;5.10;;;25.50;71.30;;;;;;4913040;29;20476;-92
2023/09/26 10:37:48;;;;;;;7.20;5.87;;;25.10;74.60;;;;;;4916657;29;20465;-90
2023/09/26 10:40:14;;;;;;;13.50;6.40;;;24.70;76.80;;;;;;4913739;29;20801;-92
2023/09/26 10:42:45;;;;;;;7.23;6.40;;;24.80;79.80;;;;;;4915022;29;20472;-90
2023/09/26 10:45:11;;;;;;;5.60;4.23;;;24.60;80.80;;;;;;4912773;29;20995;-90
2023/09/26 10:47:39;;;;;;;4.33;4.03;;;24.60;81.40;;;;;;4913972;29;20904;-91
2023/09/26 10:50:13;;;;;;;4.10;3.70;;;24.70;81.60;;;;;;4912492;29;20544;-91
2023/09/26 10:52:48;;;;;;;4.30;3.93;;;24.20;81.40;;;;;;4913621;29;20525;-90
2023/09/26 10:55:16;;;;;;;5.50;3.90;;;24.60;81.60;;;;;;4911199;29;20511;-92
2023/09/26 10:57:42;;;;;;;3.47;3.27;;;24.50;80.20;;;;;;4911473;29;20468;-92
2023/09/26 11:00:13;;;;;;;4.60;4.17;;;25.50;78.10;;;;;;4910093;29;20455;-91
2023/09/26 11:02:39;;;;;;;3.80;3.50;;;25.60;75.60;;;;;;4911652;29;20473;-90
2023/09/26 11:05:10;;;;;;;4.03;3.60;;;26.10;75.50;;;;;;4910699;29;20453;-91
2023/09/26 11:07:37;;;;;;;6.20;5.70;;;25.70;75.50;;;;;;4896204;29;20455;-91
2023/09/26 11:10:04;;;;;;;4.27;3.97;;;25.90;75.90;;;;;;4911389;29;20588;-90
2023/09/26 11:12:32;;;;;;;3.50;3.20;;;25.30;76.40;;;;;;4913636;29;20699;-91
2023/09/26 11:14:59;;;;;;;9.67;8.67;;;24.70;78.00;;;;;;4909445;29;20471;-91
2023/09/26 11:17:27;;;;;;;3.63;3.30;;;24.70;79.20;;;;;;4911087;29;20958;-91
2023/09/26 11:19:57;;;;;;;4.50;4.10;;;24.20;79.30;;;;;;4913791;29;20536;-90
2023/09/26 11:22:23;;;;;;;3.67;3.33;;;24.20;80.60;;;;;;4914364;29;20464;-90
2023/09/26 11:24:48;;;;;;;4.37;3.00;;;24.70;80.20;;;;;;4917231;29;20467;-91
2023/09/26 11:27:14;;;;;;;3.83;3.53;;;25.20;79.20;;;;;;4914696;29;20469;-91
2023/09/26 11:29:40;;;;;;;3.80;3.50;;;25.30;78.10;;;;;;4913876;29;20609;-91
2023/09/26 11:32:06;;;;;;;3.60;3.30;;;26.40;77.90;;;;;;4909894;29;20234;-91
2023/09/26 11:34:34;;;;;;;5.60;4.50;;;24.80;77.30;;;;;;4911686;29;20507;-91
2023/09/26 11:37:00;;;;;;;3.90;2.90;;;24.80;77.20;;;;;;4916966;29;20567;-91
2023/09/26 11:39:26;;;;;;;3.17;2.97;;;24.70;77.30;;;;;;4935407;28;20459;-91
2023/09/26 11:42:11;;;;;;;3.90;3.43;;;25.00;77.90;;;;;;4934433;28;20202;-91
2023/09/26 11:44:37;;;;;;;3.37;3.17;;;24.60;77.10;;;;;;4922597;28;20676;-91
2023/09/26 11:47:04;;;;;;;3.93;3.53;;;24.70;77.50;;;;;;4913083;29;20560;-91
2023/09/26 11:49:34;;;;;;;3.60;2.53;;;24.10;76.20;;;;;;4922141;29;20235;-89
2023/09/26 11:51:59;;;;;;;2.80;2.60;;;24.40;76.00;;;;;;4922806;29;20459;-90
2023/09/26 11:54:25;;;;;;;2.70;2.50;;;24.10;75.60;;;;;;4912684;29;20477;-90
2023/09/26 11:56:52;;;;;;;2.40;2.20;;;24.10;75.90;;;;;;4910369;29;20189;-91
2023/09/26 11:59:17;;;;;;;2.67;2.47;;;24.40;76.80;;;;;;4913551;29;20549;-90
2023/09/26 12:01:43;;;;;;;2.90;2.63;;;24.40;76.80;;;;;;4910424;29;20720;-90
2023/09/26 12:04:13;;;;;;;4.00;3.20;;;24.50;77.70;;;;;;4912946;29;20174;-92
2023/09/26 12:06:40;;;;;;;1.93;1.83;;;24.30;75.30;;;;;;4929616;29;20551;-91
2023/09/26 12:09:10;;;;;;;2.97;2.40;;;24.80;75.00;;;;;;4912944;29;20476;-92
2023/09/26 12:11:36;;;;;;;2.50;2.30;;;24.50;74.50;;;;;;4908123;29;20443;-90
2023/09/26 12:14:01;;;;;;;4.20;2.90;;;24.50;75.30;;;;;;4913342;29;20459;-90
2023/09/26 12:16:29;;;;;;;2.20;1.87;;;24.80;76.00;;;;;;4912756;29;20446;-91
2023/09/26 12:18:55;;;;;;;2.40;2.17;;;24.50;73.80;;;;;;4908833;29;20184;-91
2023/09/26 12:21:20;;;;;;;2.83;2.40;;;24.90;73.90;;;;;;4911589;29;20448;-92
2023/09/26 12:23:46;;;;;;;2.40;2.20;;;25.20;73.80;;;;;;4909822;29;20290;-91
2023/09/26 12:26:11;;;;;;;2.40;2.20;;;24.80;74.80;;;;;;4913119;29;20187;-91
2023/09/26 12:28:37;;;;;;;2.27;2.07;;;24.50;74.20;;;;;;4909779;29;20354;-91
2023/09/26 12:31:02;;;;;;;2.10;1.90;;;24.60;73.00;;;;;;4912920;29;20188;-92
2023/09/26 12:33:28;;;;;;;2.00;1.83;;;24.40;73.20;;;;;;4912718;29;20210;-92
2023/09/26 12:35:54;;;;;;;3.33;3.03;;;24.70;72.40;;;;;;4910301;29;20565;-90
2023/09/26 12:38:19;;;;;;;2.23;2.03;;;24.90;72.90;;;;;;4911874;29;20328;-91
2023/09/26 12:40:45;;;;;;;2.63;2.43;;;24.50;72.90;;;;;;4909213;29;20196;-91
2023/09/26 12:43:10;;;;;;;4.53;4.23;;;24.60;73.00;;;;;;4910519;29;20266;-91